Air Navigation Services of Czech Republic
Airport: LKKV Updated:  29.04.2017 07:06:12  UTC
 METAR LKKV 29.04. 07:00 ...
METAR LKKV 290700Z 27006KT 240V300 9999 FEW040 04/01 Q1016 RMK REG QNH 1013=
 TAF LKKV 29.04. 05:00 ...
TAF LKKV 290500Z 2906/3012 22004KT 7000 NSC      TEMPO 2906/2907 1500 BR BKN007      PROB30 TEMPO 2906/2907 0800 FG BKN004      BECMG 2907/2909 9999 SCT030      TEMPO 2909/2917 33010G20KT 7000 SHRA FEW020TCU BKN025      BECMG 2918/2920 VRB02KT CAVOK      PROB30 TEMPO 3003/3005 5000 BR NSC=